sensor_id;sensor_type;location;lat;lon;timestamp;P1;durP1;ratioP1;P2;durP2;ratioP2
2187;SDS011;1100;52.014;8.540;2023-03-14T00:02:15;4.57;;;0.60;;
2187;SDS011;1100;52.014;8.540;2023-03-14T00:04:41;4.93;;;0.90;;
2187;SDS011;1100;52.014;8.540;2023-03-14T00:07:06;5.30;;;0.60;;
2187;SDS011;1100;52.014;8.540;2023-03-14T00:09:31;5.90;;;1.00;;
2187;SDS011;1100;52.014;8.540;2023-03-14T00:11:57;4.43;;;0.67;;
2187;SDS011;1100;52.014;8.540;2023-03-14T00:14:22;4.00;;;0.70;;
2187;SDS011;1100;52.014;8.540;2023-03-14T00:16:48;4.10;;;0.83;;
2187;SDS011;1100;52.014;8.540;2023-03-14T00:19:14;3.30;;;0.57;;
2187;SDS011;1100;52.014;8.540;2023-03-14T00:21:39;4.80;;;0.67;;
2187;SDS011;1100;52.014;8.540;2023-03-14T00:24:05;4.83;;;0.60;;
2187;SDS011;1100;52.014;8.540;2023-03-14T00:26:31;5.30;;;0.63;;
2187;SDS011;1100;52.014;8.540;2023-03-14T00:28:56;4.33;;;0.53;;
2187;SDS011;1100;52.014;8.540;2023-03-14T00:31:21;3.60;;;0.50;;
2187;SDS011;1100;52.014;8.540;2023-03-14T00:33:46;5.93;;;0.60;;
2187;SDS011;1100;52.014;8.540;2023-03-14T00:36:13;7.13;;;1.07;;
2187;SDS011;1100;52.014;8.540;2023-03-14T00:38:41;3.53;;;0.50;;
2187;SDS011;1100;52.014;8.540;2023-03-14T00:41:09;6.32;;;0.70;;
2187;SDS011;1100;52.014;8.540;2023-03-14T00:43:36;3.17;;;0.52;;
2187;SDS011;1100;52.014;8.540;2023-03-14T00:46:02;3.30;;;0.47;;
2187;SDS011;1100;52.014;8.540;2023-03-14T00:48:28;3.08;;;0.50;;
2187;SDS011;1100;52.014;8.540;2023-03-14T00:50:54;5.60;;;0.70;;
2187;SDS011;1100;52.014;8.540;2023-03-14T00:53:19;5.25;;;0.57;;
2187;SDS011;1100;52.014;8.540;2023-03-14T00:55:44;3.77;;;0.60;;
2187;SDS011;1100;52.014;8.540;2023-03-14T00:58:10;4.50;;;0.70;;
2187;SDS011;1100;52.014;8.540;2023-03-14T01:00:37;4.35;;;0.55;;
2187;SDS011;1100;52.014;8.540;2023-03-14T01:03:03;4.65;;;0.65;;
2187;SDS011;1100;52.014;8.540;2023-03-14T01:05:29;5.65;;;0.68;;
2187;SDS011;1100;52.014;8.540;2023-03-14T01:07:54;3.70;;;0.50;;
2187;SDS011;1100;52.014;8.540;2023-03-14T01:10:20;4.80;;;0.50;;
2187;SDS011;1100;52.014;8.540;2023-03-14T01:12:45;3.70;;;0.53;;
2187;SDS011;1100;52.014;8.540;2023-03-14T01:15:11;6.43;;;1.10;;
2187;SDS011;1100;52.014;8.540;2023-03-14T01:17:36;6.57;;;0.73;;
2187;SDS011;1100;52.014;8.540;2023-03-14T01:20:03;5.30;;;0.60;;
2187;SDS011;1100;52.014;8.540;2023-03-14T01:22:29;6.72;;;1.00;;
2187;SDS011;1100;52.014;8.540;2023-03-14T01:24:55;4.68;;;0.43;;
2187;SDS011;1100;52.014;8.540;2023-03-14T01:27:20;4.60;;;0.50;;
2187;SDS011;1100;52.014;8.540;2023-03-14T01:29:46;4.73;;;0.93;;
2187;SDS011;1100;52.014;8.540;2023-03-14T01:32:12;9.57;;;0.68;;
2187;SDS011;1100;52.014;8.540;2023-03-14T01:34:37;7.10;;;0.83;;
2187;SDS011;1100;52.014;8.540;2023-03-14T01:37:03;5.30;;;0.70;;
2187;SDS011;1100;52.014;8.540;2023-03-14T01:39:28;5.53;;;0.73;;
2187;SDS011;1100;52.014;8.540;2023-03-14T01:41:54;5.03;;;0.60;;
2187;SDS011;1100;52.014;8.540;2023-03-14T01:44:19;6.30;;;0.70;;
2187;SDS011;1100;52.014;8.540;2023-03-14T01:46:45;7.70;;;0.43;;
2187;SDS011;1100;52.014;8.540;2023-03-14T01:54:41;6.82;;;0.85;;
2187;SDS011;1100;52.014;8.540;2023-03-14T01:59:59;5.27;;;0.67;;
2187;SDS011;1100;52.014;8.540;2023-03-14T02:02:33;6.72;;;0.70;;
2187;SDS011;1100;52.014;8.540;2023-03-14T02:04:59;5.53;;;0.70;;
2187;SDS011;1100;52.014;8.540;2023-03-14T02:07:35;4.50;;;0.50;;
2187;SDS011;1100;52.014;8.540;2023-03-14T02:10:04;4.70;;;0.50;;
2187;SDS011;1100;52.014;8.540;2023-03-14T02:12:30;5.60;;;0.70;;
2187;SDS011;1100;52.014;8.540;2023-03-14T02:14:56;4.45;;;0.40;;
2187;SDS011;1100;52.014;8.540;2023-03-14T02:17:22;3.20;;;0.40;;
2187;SDS011;1100;52.014;8.540;2023-03-14T02:22:39;5.28;;;0.70;;
2187;SDS011;1100;52.014;8.540;2023-03-14T02:27:41;5.27;;;0.40;;
2187;SDS011;1100;52.014;8.540;2023-03-14T02:30:10;5.20;;;0.55;;
2187;SDS011;1100;52.014;8.540;2023-03-14T02:32:40;5.80;;;0.60;;
2187;SDS011;1100;52.014;8.540;2023-03-14T02:35:10;4.45;;;0.40;;
2187;SDS011;1100;52.014;8.540;2023-03-14T02:37:41;4.50;;;0.32;;
2187;SDS011;1100;52.014;8.540;2023-03-14T02:40:12;3.20;;;0.40;;
2187;SDS011;1100;52.014;8.540;2023-03-14T02:42:38;2.88;;;0.30;;
2187;SDS011;1100;52.014;8.540;2023-03-14T02:47:36;4.03;;;0.40;;
2187;SDS011;1100;52.014;8.540;2023-03-14T02:50:09;3.05;;;0.20;;
2187;SDS011;1100;52.014;8.540;2023-03-14T02:52:37;3.87;;;0.40;;
2187;SDS011;1100;52.014;8.540;2023-03-14T02:55:03;1.85;;;0.20;;
2187;SDS011;1100;52.014;8.540;2023-03-14T02:57:28;4.70;;;0.40;;
2187;SDS011;1100;52.014;8.540;2023-03-14T02:59:54;6.47;;;0.77;;
2187;SDS011;1100;52.014;8.540;2023-03-14T03:02:19;3.13;;;0.30;;
2187;SDS011;1100;52.014;8.540;2023-03-14T03:04:44;3.27;;;0.33;;
2187;SDS011;1100;52.014;8.540;2023-03-14T03:07:10;3.43;;;0.30;;
2187;SDS011;1100;52.014;8.540;2023-03-14T03:09:35;4.43;;;0.30;;
2187;SDS011;1100;52.014;8.540;2023-03-14T03:12:00;2.37;;;0.37;;
2187;SDS011;1100;52.014;8.540;2023-03-14T03:14:26;4.33;;;0.30;;
2187;SDS011;1100;52.014;8.540;2023-03-14T03:16:51;2.70;;;0.30;;
2187;SDS011;1100;52.014;8.540;2023-03-14T03:19:16;5.17;;;0.40;;
2187;SDS011;1100;52.014;8.540;2023-03-14T03:21:42;3.38;;;0.25;;
2187;SDS011;1100;52.014;8.540;2023-03-14T03:24:08;5.57;;;0.50;;
2187;SDS011;1100;52.014;8.540;2023-03-14T03:26:34;3.17;;;0.33;;
2187;SDS011;1100;52.014;8.540;2023-03-14T03:29:01;4.75;;;0.40;;
2187;SDS011;1100;52.014;8.540;2023-03-14T03:31:26;1.88;;;0.43;;
2187;SDS011;1100;52.014;8.540;2023-03-14T03:33:52;2.33;;;0.30;;
2187;SDS011;1100;52.014;8.540;2023-03-14T03:36:20;2.43;;;0.30;;
2187;SDS011;1100;52.014;8.540;2023-03-14T03:38:47;2.60;;;0.40;;
2187;SDS011;1100;52.014;8.540;2023-03-14T03:41:13;2.13;;;0.23;;
2187;SDS011;1100;52.014;8.540;2023-03-14T03:43:38;2.50;;;0.20;;
2187;SDS011;1100;52.014;8.540;2023-03-14T03:46:04;3.83;;;0.20;;
2187;SDS011;1100;52.014;8.540;2023-03-14T03:48:30;4.47;;;0.30;;
2187;SDS011;1100;52.014;8.540;2023-03-14T03:50:55;2.93;;;0.20;;
2187;SDS011;1100;52.014;8.540;2023-03-14T03:53:21;3.87;;;0.37;;
2187;SDS011;1100;52.014;8.540;2023-03-14T03:55:46;1.75;;;0.10;;
2187;SDS011;1100;52.014;8.540;2023-03-14T03:58:12;3.63;;;0.20;;
2187;SDS011;1100;52.014;8.540;2023-03-14T04:00:37;4.40;;;0.40;;
2187;SDS011;1100;52.014;8.540;2023-03-14T04:03:03;3.03;;;0.20;;
2187;SDS011;1100;52.014;8.540;2023-03-14T04:05:29;2.07;;;0.30;;
2187;SDS011;1100;52.014;8.540;2023-03-14T04:07:55;2.33;;;0.30;;
2187;SDS011;1100;52.014;8.540;2023-03-14T04:10:20;9.83;;;0.73;;
2187;SDS011;1100;52.014;8.540;2023-03-14T04:12:46;4.30;;;0.40;;
2187;SDS011;1100;52.014;8.540;2023-03-14T04:15:11;3.93;;;0.30;;
2187;SDS011;1100;52.014;8.540;2023-03-14T04:17:36;3.83;;;0.40;;
2187;SDS011;1100;52.014;8.540;2023-03-14T04:20:02;5.67;;;0.50;;
2187;SDS011;1100;52.014;8.540;2023-03-14T04:22:28;5.30;;;0.60;;
2187;SDS011;1100;52.014;8.540;2023-03-14T04:24:53;7.70;;;0.83;;
2187;SDS011;1100;52.014;8.540;2023-03-14T04:27:18;8.10;;;0.80;;
2187;SDS011;1100;52.014;8.540;2023-03-14T04:29:44;6.10;;;0.77;;
2187;SDS011;1100;52.014;8.540;2023-03-14T04:32:09;5.43;;;0.70;;
2187;SDS011;1100;52.014;8.540;2023-03-14T04:34:35;4.30;;;0.50;;
2187;SDS011;1100;52.014;8.540;2023-03-14T04:37:00;4.87;;;0.70;;
2187;SDS011;1100;52.014;8.540;2023-03-14T04:39:26;10.30;;;0.63;;
2187;SDS011;1100;52.014;8.540;2023-03-14T04:41:51;4.17;;;0.40;;
2187;SDS011;1100;52.014;8.540;2023-03-14T04:44:17;2.97;;;0.38;;
2187;SDS011;1100;52.014;8.540;2023-03-14T04:46:43;3.63;;;0.67;;
2187;SDS011;1100;52.014;8.540;2023-03-14T04:49:08;5.75;;;0.68;;
2187;SDS011;1100;52.014;8.540;2023-03-14T04:51:33;7.80;;;0.60;;
2187;SDS011;1100;52.014;8.540;2023-03-14T04:53:59;9.10;;;0.73;;
2187;SDS011;1100;52.014;8.540;2023-03-14T04:56:24;3.57;;;0.37;;
2187;SDS011;1100;52.014;8.540;2023-03-14T04:58:50;6.00;;;0.73;;
2187;SDS011;1100;52.014;8.540;2023-03-14T05:01:15;7.03;;;0.60;;
2187;SDS011;1100;52.014;8.540;2023-03-14T05:03:41;6.07;;;0.67;;
2187;SDS011;1100;52.014;8.540;2023-03-14T05:06:06;3.33;;;0.40;;
2187;SDS011;1100;52.014;8.540;2023-03-14T05:08:32;5.60;;;0.60;;
2187;SDS011;1100;52.014;8.540;2023-03-14T05:10:58;5.63;;;0.50;;
2187;SDS011;1100;52.014;8.540;2023-03-14T05:13:23;5.35;;;0.40;;
2187;SDS011;1100;52.014;8.540;2023-03-14T05:15:49;3.53;;;0.60;;
2187;SDS011;1100;52.014;8.540;2023-03-14T05:18:18;16.80;;;0.93;;
2187;SDS011;1100;52.014;8.540;2023-03-14T05:20:43;3.47;;;0.30;;
2187;SDS011;1100;52.014;8.540;2023-03-14T05:23:09;7.00;;;0.50;;
2187;SDS011;1100;52.014;8.540;2023-03-14T05:25:34;7.85;;;0.50;;
2187;SDS011;1100;52.014;8.540;2023-03-14T05:28:00;4.80;;;0.37;;
2187;SDS011;1100;52.014;8.540;2023-03-14T05:30:25;4.87;;;0.63;;
2187;SDS011;1100;52.014;8.540;2023-03-14T05:32:52;3.15;;;0.40;;
2187;SDS011;1100;52.014;8.540;2023-03-14T05:35:18;5.53;;;0.37;;
2187;SDS011;1100;52.014;8.540;2023-03-14T05:37:43;7.27;;;0.40;;
2187;SDS011;1100;52.014;8.540;2023-03-14T05:40:09;4.33;;;0.47;;
2187;SDS011;1100;52.014;8.540;2023-03-14T05:42:35;8.25;;;0.63;;
2187;SDS011;1100;52.014;8.540;2023-03-14T05:45:00;4.90;;;0.40;;
2187;SDS011;1100;52.014;8.540;2023-03-14T05:47:25;3.60;;;0.40;;
2187;SDS011;1100;52.014;8.540;2023-03-14T05:49:50;3.73;;;0.40;;
2187;SDS011;1100;52.014;8.540;2023-03-14T05:52:16;5.88;;;0.47;;
2187;SDS011;1100;52.014;8.540;2023-03-14T05:54:42;2.60;;;0.40;;
2187;SDS011;1100;52.014;8.540;2023-03-14T05:57:07;3.83;;;0.37;;
2187;SDS011;1100;52.014;8.540;2023-03-14T05:59:33;3.67;;;0.40;;
2187;SDS011;1100;52.014;8.540;2023-03-14T06:01:58;4.57;;;0.30;;
2187;SDS011;1100;52.014;8.540;2023-03-14T06:04:24;3.17;;;0.30;;
2187;SDS011;1100;52.014;8.540;2023-03-14T06:06:49;4.63;;;0.38;;
2187;SDS011;1100;52.014;8.540;2023-03-14T06:09:15;3.30;;;0.30;;
2187;SDS011;1100;52.014;8.540;2023-03-14T06:11:40;3.43;;;0.30;;
2187;SDS011;1100;52.014;8.540;2023-03-14T06:14:06;4.90;;;0.75;;
2187;SDS011;1100;52.014;8.540;2023-03-14T06:16:31;4.40;;;0.50;;
2187;SDS011;1100;52.014;8.540;2023-03-14T06:18:57;4.53;;;0.40;;
2187;SDS011;1100;52.014;8.540;2023-03-14T06:21:23;3.67;;;0.40;;
2187;SDS011;1100;52.014;8.540;2023-03-14T06:23:51;4.20;;;0.50;;
2187;SDS011;1100;52.014;8.540;2023-03-14T06:26:19;4.37;;;0.70;;
2187;SDS011;1100;52.014;8.540;2023-03-14T06:28:45;4.28;;;0.43;;
2187;SDS011;1100;52.014;8.540;2023-03-14T06:31:11;2.92;;;0.40;;
2187;SDS011;1100;52.014;8.540;2023-03-14T06:33:36;1.83;;;0.20;;
2187;SDS011;1100;52.014;8.540;2023-03-14T06:36:05;1.67;;;0.20;;
2187;SDS011;1100;52.014;8.540;2023-03-14T06:38:31;2.58;;;0.13;;
2187;SDS011;1100;52.014;8.540;2023-03-14T06:41:02;1.07;;;0.10;;
2187;SDS011;1100;52.014;8.540;2023-03-14T06:43:33;1.77;;;0.20;;
2187;SDS011;1100;52.014;8.540;2023-03-14T06:45:59;1.00;;;0.20;;
2187;SDS011;1100;52.014;8.540;2023-03-14T06:48:24;1.27;;;0.20;;
2187;SDS011;1100;52.014;8.540;2023-03-14T06:50:50;0.90;;;0.20;;
2187;SDS011;1100;52.014;8.540;2023-03-14T06:53:15;1.10;;;0.20;;
2187;SDS011;1100;52.014;8.540;2023-03-14T06:55:41;1.00;;;0.13;;
2187;SDS011;1100;52.014;8.540;2023-03-14T06:58:07;1.40;;;0.20;;
2187;SDS011;1100;52.014;8.540;2023-03-14T07:00:33;2.20;;;0.10;;
2187;SDS011;1100;52.014;8.540;2023-03-14T07:02:59;2.08;;;0.10;;
2187;SDS011;1100;52.014;8.540;2023-03-14T07:05:24;1.70;;;0.20;;
2187;SDS011;1100;52.014;8.540;2023-03-14T07:07:50;1.47;;;0.20;;
2187;SDS011;1100;52.014;8.540;2023-03-14T07:10:15;1.13;;;0.13;;
2187;SDS011;1100;52.014;8.540;2023-03-14T07:12:41;4.10;;;0.38;;
2187;SDS011;1100;52.014;8.540;2023-03-14T07:15:06;3.27;;;0.60;;
2187;SDS011;1100;52.014;8.540;2023-03-14T07:17:32;4.30;;;1.00;;
2187;SDS011;1100;52.014;8.540;2023-03-14T07:19:58;4.53;;;0.77;;
2187;SDS011;1100;52.014;8.540;2023-03-14T07:22:24;4.60;;;1.20;;
2187;SDS011;1100;52.014;8.540;2023-03-14T07:24:49;5.60;;;1.00;;
2187;SDS011;1100;52.014;8.540;2023-03-14T07:27:15;4.80;;;1.07;;
2187;SDS011;1100;52.014;8.540;2023-03-14T07:29:40;5.33;;;0.90;;
2187;SDS011;1100;52.014;8.540;2023-03-14T07:32:05;4.03;;;0.80;;
2187;SDS011;1100;52.014;8.540;2023-03-14T07:34:31;4.67;;;1.00;;
2187;SDS011;1100;52.014;8.540;2023-03-14T07:36:56;5.20;;;1.20;;
2187;SDS011;1100;52.014;8.540;2023-03-14T07:39:21;6.20;;;1.43;;
2187;SDS011;1100;52.014;8.540;2023-03-14T07:41:47;6.43;;;1.70;;
2187;SDS011;1100;52.014;8.540;2023-03-14T07:44:12;4.73;;;1.47;;
2187;SDS011;1100;52.014;8.540;2023-03-14T07:46:37;5.13;;;0.83;;
2187;SDS011;1100;52.014;8.540;2023-03-14T07:49:03;4.77;;;1.17;;
2187;SDS011;1100;52.014;8.540;2023-03-14T07:51:28;3.63;;;0.70;;
2187;SDS011;1100;52.014;8.540;2023-03-14T07:53:53;2.87;;;0.60;;
2187;SDS011;1100;52.014;8.540;2023-03-14T07:56:19;4.73;;;0.60;;
2187;SDS011;1100;52.014;8.540;2023-03-14T07:58:44;5.00;;;0.77;;
2187;SDS011;1100;52.014;8.540;2023-03-14T08:01:09;3.83;;;0.60;;
2187;SDS011;1100;52.014;8.540;2023-03-14T08:03:35;4.60;;;0.80;;
2187;SDS011;1100;52.014;8.540;2023-03-14T08:06:00;3.80;;;0.80;;
2187;SDS011;1100;52.014;8.540;2023-03-14T08:08:25;3.43;;;0.70;;
2187;SDS011;1100;52.014;8.540;2023-03-14T08:10:50;4.73;;;0.70;;
2187;SDS011;1100;52.014;8.540;2023-03-14T08:13:16;3.40;;;0.60;;
2187;SDS011;1100;52.014;8.540;2023-03-14T08:15:41;5.77;;;0.97;;
2187;SDS011;1100;52.014;8.540;2023-03-14T08:18:06;4.33;;;0.77;;
2187;SDS011;1100;52.014;8.540;2023-03-14T08:20:32;3.95;;;0.52;;
2187;SDS011;1100;52.014;8.540;2023-03-14T08:23:00;4.80;;;0.50;;
2187;SDS011;1100;52.014;8.540;2023-03-14T08:25:26;3.72;;;0.70;;
2187;SDS011;1100;52.014;8.540;2023-03-14T08:27:52;3.40;;;0.67;;
2187;SDS011;1100;52.014;8.540;2023-03-14T08:30:18;3.80;;;0.50;;
2187;SDS011;1100;52.014;8.540;2023-03-14T08:32:45;5.30;;;0.70;;
2187;SDS011;1100;52.014;8.540;2023-03-14T08:35:10;4.27;;;0.90;;
2187;SDS011;1100;52.014;8.540;2023-03-14T08:37:36;4.20;;;1.00;;
2187;SDS011;1100;52.014;8.540;2023-03-14T08:40:03;3.60;;;0.77;;
2187;SDS011;1100;52.014;8.540;2023-03-14T08:42:34;4.10;;;0.90;;
2187;SDS011;1100;52.014;8.540;2023-03-14T08:45:00;6.38;;;0.90;;
2187;SDS011;1100;52.014;8.540;2023-03-14T08:47:25;4.10;;;1.00;;
2187;SDS011;1100;52.014;8.540;2023-03-14T08:49:51;3.67;;;0.97;;
2187;SDS011;1100;52.014;8.540;2023-03-14T08:52:16;4.30;;;0.90;;
2187;SDS011;1100;52.014;8.540;2023-03-14T08:54:43;4.87;;;0.97;;
2187;SDS011;1100;52.014;8.540;2023-03-14T08:57:09;6.88;;;1.58;;
2187;SDS011;1100;52.014;8.540;2023-03-14T08:59:34;4.33;;;1.30;;
2187;SDS011;1100;52.014;8.540;2023-03-14T09:01:59;4.27;;;1.43;;
2187;SDS011;1100;52.014;8.540;2023-03-14T09:04:28;6.82;;;1.33;;
2187;SDS011;1100;52.014;8.540;2023-03-14T09:06:54;4.47;;;1.67;;
2187;SDS011;1100;52.014;8.540;2023-03-14T09:09:19;6.13;;;1.83;;
2187;SDS011;1100;52.014;8.540;2023-03-14T09:11:45;5.37;;;1.90;;
2187;SDS011;1100;52.014;8.540;2023-03-14T09:14:10;5.07;;;1.90;;
2187;SDS011;1100;52.014;8.540;2023-03-14T09:16:35;5.97;;;2.10;;
2187;SDS011;1100;52.014;8.540;2023-03-14T09:19:00;6.10;;;2.23;;
2187;SDS011;1100;52.014;8.540;2023-03-14T09:21:26;7.93;;;2.33;;
2187;SDS011;1100;52.014;8.540;2023-03-14T09:23:52;5.82;;;2.10;;
2187;SDS011;1100;52.014;8.540;2023-03-14T09:26:18;4.95;;;1.90;;
2187;SDS011;1100;52.014;8.540;2023-03-14T09:28:43;7.67;;;2.13;;
2187;SDS011;1100;52.014;8.540;2023-03-14T09:31:09;5.33;;;1.83;;
2187;SDS011;1100;52.014;8.540;2023-03-14T09:33:36;6.72;;;2.00;;
2187;SDS011;1100;52.014;8.540;2023-03-14T09:36:02;5.43;;;1.65;;
2187;SDS011;1100;52.014;8.540;2023-03-14T09:38:28;4.73;;;1.40;;
2187;SDS011;1100;52.014;8.540;2023-03-14T09:40:53;7.40;;;2.00;;
2187;SDS011;1100;52.014;8.540;2023-03-14T09:43:20;4.10;;;1.30;;
2187;SDS011;1100;52.014;8.540;2023-03-14T09:45:47;4.57;;;1.10;;
2187;SDS011;1100;52.014;8.540;2023-03-14T09:48:16;3.92;;;1.25;;
2187;SDS011;1100;52.014;8.540;2023-03-14T09:50:50;4.38;;;1.38;;
2187;SDS011;1100;52.014;8.540;2023-03-14T09:53:25;4.07;;;1.05;;
2187;SDS011;1100;52.014;8.540;2023-03-14T09:55:54;4.40;;;1.10;;
2187;SDS011;1100;52.014;8.540;2023-03-14T09:58:23;3.78;;;0.90;;
2187;SDS011;1100;52.014;8.540;2023-03-14T10:00:49;3.83;;;1.20;;
2187;SDS011;1100;52.014;8.540;2023-03-14T10:05:47;4.00;;;1.23;;
2187;SDS011;1100;52.014;8.540;2023-03-14T10:08:13;4.50;;;1.20;;
2187;SDS011;1100;52.014;8.540;2023-03-14T10:10:38;3.97;;;1.20;;
2187;SDS011;1100;52.014;8.540;2023-03-14T10:13:14;4.78;;;1.45;;
2187;SDS011;1100;52.014;8.540;2023-03-14T10:15:40;4.43;;;1.83;;
2187;SDS011;1100;52.014;8.540;2023-03-14T10:18:10;5.33;;;1.80;;
2187;SDS011;1100;52.014;8.540;2023-03-14T10:20:41;5.18;;;1.90;;
2187;SDS011;1100;52.014;8.540;2023-03-14T10:25:37;4.40;;;1.90;;
2187;SDS011;1100;52.014;8.540;2023-03-14T10:28:26;4.88;;;1.88;;
2187;SDS011;1100;52.014;8.540;2023-03-14T10:30:54;5.53;;;1.87;;
2187;SDS011;1100;52.014;8.540;2023-03-14T10:33:21;4.68;;;1.88;;
2187;SDS011;1100;52.014;8.540;2023-03-14T10:35:56;4.93;;;2.13;;
2187;SDS011;1100;52.014;8.540;2023-03-14T10:38:25;4.43;;;1.70;;
2187;SDS011;1100;52.014;8.540;2023-03-14T10:43:58;2.90;;;0.40;;
2187;SDS011;1100;52.014;8.540;2023-03-14T10:46:26;1.50;;;0.20;;
2187;SDS011;1100;52.014;8.540;2023-03-14T10:48:54;1.45;;;0.20;;
2187;SDS011;1100;52.014;8.540;2023-03-14T10:51:24;2.37;;;0.20;;
2187;SDS011;1100;52.014;8.540;2023-03-14T10:56:26;2.05;;;0.30;;
2187;SDS011;1100;52.014;8.540;2023-03-14T10:58:57;1.95;;;0.32;;
2187;SDS011;1100;52.014;8.540;2023-03-14T11:01:40;3.00;;;0.30;;
2187;SDS011;1100;52.014;8.540;2023-03-14T11:15:02;3.50;;;0.20;;
2187;SDS011;1100;52.014;8.540;2023-03-14T11:20:42;1.60;;;0.20;;
2187;SDS011;1100;52.014;8.540;2023-03-14T11:23:18;2.38;;;0.20;;
2187;SDS011;1100;52.014;8.540;2023-03-14T11:28:17;1.90;;;0.20;;
2187;SDS011;1100;52.014;8.540;2023-03-14T11:31:25;0.93;;;0.10;;
2187;SDS011;1100;52.014;8.540;2023-03-14T11:36:29;1.70;;;0.20;;
2187;SDS011;1100;52.014;8.540;2023-03-14T11:38:58;1.15;;;0.20;;
2187;SDS011;1100;52.014;8.540;2023-03-14T11:43:57;0.93;;;0.10;;
2187;SDS011;1100;52.014;8.540;2023-03-14T11:46:29;1.25;;;0.10;;
2187;SDS011;1100;52.014;8.540;2023-03-14T11:51:46;1.45;;;0.20;;
2187;SDS011;1100;52.014;8.540;2023-03-14T11:54:24;2.22;;;0.30;;
2187;SDS011;1100;52.014;8.540;2023-03-14T11:57:01;1.97;;;0.20;;
2187;SDS011;1100;52.014;8.540;2023-03-14T12:02:51;2.47;;;0.20;;
2187;SDS011;1100;52.014;8.540;2023-03-14T12:13:10;6.68;;;0.25;;
2187;SDS011;1100;52.014;8.540;2023-03-14T12:15:56;1.88;;;0.30;;
2187;SDS011;1100;52.014;8.540;2023-03-14T12:18:29;3.53;;;0.30;;
2187;SDS011;1100;52.014;8.540;2023-03-14T12:20:57;2.97;;;0.30;;
2187;SDS011;1100;52.014;8.540;2023-03-14T12:23:24;2.33;;;0.30;;
2187;SDS011;1100;52.014;8.540;2023-03-14T12:29:17;6.63;;;0.50;;
2187;SDS011;1100;52.014;8.540;2023-03-14T12:31:43;4.25;;;0.30;;
2187;SDS011;1100;52.014;8.540;2023-03-14T12:41:48;4.73;;;0.43;;
2187;SDS011;1100;52.014;8.540;2023-03-14T12:47:41;5.47;;;0.40;;
2187;SDS011;1100;52.014;8.540;2023-03-14T12:49:43;6.10;;;0.55;;
2187;SDS011;1100;52.014;8.540;2023-03-14T12:52:16;7.78;;;0.57;;
2187;SDS011;1100;52.014;8.540;2023-03-14T12:54:59;4.80;;;0.40;;
2187;SDS011;1100;52.014;8.540;2023-03-14T13:00:39;5.68;;;0.50;;
2187;SDS011;1100;52.014;8.540;2023-03-14T13:03:02;5.80;;;0.52;;
2187;SDS011;1100;52.014;8.540;2023-03-14T13:05:53;5.00;;;0.38;;
2187;SDS011;1100;52.014;8.540;2023-03-14T13:11:06;5.38;;;0.40;;
2187;SDS011;1100;52.014;8.540;2023-03-14T13:13:35;10.30;;;0.82;;
2187;SDS011;1100;52.014;8.540;2023-03-14T13:16:05;4.72;;;0.40;;
2187;SDS011;1100;52.014;8.540;2023-03-14T13:18:41;5.47;;;0.70;;
2187;SDS011;1100;52.014;8.540;2023-03-14T13:21:11;10.50;;;0.50;;
2187;SDS011;1100;52.014;8.540;2023-03-14T13:23:40;4.05;;;0.40;;
2187;SDS011;1100;52.014;8.540;2023-03-14T13:26:09;4.50;;;0.43;;
2187;SDS011;1100;52.014;8.540;2023-03-14T13:28:37;10.45;;;0.80;;
2187;SDS011;1100;52.014;8.540;2023-03-14T13:31:03;9.53;;;0.50;;
2187;SDS011;1100;52.014;8.540;2023-03-14T13:33:30;9.05;;;1.27;;
2187;SDS011;1100;52.014;8.540;2023-03-14T13:36:00;10.57;;;0.87;;
2187;SDS011;1100;52.014;8.540;2023-03-14T13:38:31;15.07;;;1.20;;
2187;SDS011;1100;52.014;8.540;2023-03-14T13:40:59;7.50;;;0.77;;
2187;SDS011;1100;52.014;8.540;2023-03-14T13:43:30;11.52;;;0.63;;
2187;SDS011;1100;52.014;8.540;2023-03-14T13:46:13;10.63;;;1.52;;
2187;SDS011;1100;52.014;8.540;2023-03-14T13:48:45;8.13;;;1.13;;
2187;SDS011;1100;52.014;8.540;2023-03-14T13:51:17;7.80;;;0.53;;
2187;SDS011;1100;52.014;8.540;2023-03-14T13:53:44;10.40;;;1.17;;
2187;SDS011;1100;52.014;8.540;2023-03-14T13:56:11;11.23;;;1.08;;
2187;SDS011;1100;52.014;8.540;2023-03-14T13:58:38;9.77;;;0.98;;
2187;SDS011;1100;52.014;8.540;2023-03-14T14:01:21;9.68;;;0.90;;
2187;SDS011;1100;52.014;8.540;2023-03-14T14:03:50;12.00;;;1.40;;
2187;SDS011;1100;52.014;8.540;2023-03-14T14:06:26;15.88;;;1.48;;
2187;SDS011;1100;52.014;8.540;2023-03-14T14:08:56;11.05;;;1.40;;
2187;SDS011;1100;52.014;8.540;2023-03-14T14:12:10;11.52;;;0.85;;
2187;SDS011;1100;52.014;8.540;2023-03-14T14:14:27;7.57;;;0.60;;
2187;SDS011;1100;52.014;8.540;2023-03-14T14:17:01;11.67;;;0.90;;
2187;SDS011;1100;52.014;8.540;2023-03-14T14:19:30;8.82;;;1.02;;
2187;SDS011;1100;52.014;8.540;2023-03-14T14:21:58;9.30;;;0.73;;
2187;SDS011;1100;52.014;8.540;2023-03-14T14:24:24;7.90;;;0.50;;
2187;SDS011;1100;52.014;8.540;2023-03-14T14:26:55;8.00;;;0.50;;
2187;SDS011;1100;52.014;8.540;2023-03-14T14:29:26;10.03;;;0.70;;
2187;SDS011;1100;52.014;8.540;2023-03-14T14:34:47;10.68;;;0.68;;
2187;SDS011;1100;52.014;8.540;2023-03-14T14:37:27;6.57;;;0.57;;
2187;SDS011;1100;52.014;8.540;2023-03-14T14:39:58;12.05;;;0.85;;
2187;SDS011;1100;52.014;8.540;2023-03-14T14:42:27;8.67;;;0.70;;
2187;SDS011;1100;52.014;8.540;2023-03-14T14:44:56;6.72;;;0.60;;
2187;SDS011;1100;52.014;8.540;2023-03-14T14:47:23;8.07;;;0.75;;
2187;SDS011;1100;52.014;8.540;2023-03-14T14:49:51;8.88;;;0.60;;
2187;SDS011;1100;52.014;8.540;2023-03-14T14:52:20;6.45;;;0.40;;
2187;SDS011;1100;52.014;8.540;2023-03-14T14:57:17;6.10;;;0.55;;
2187;SDS011;1100;52.014;8.540;2023-03-14T14:59:45;6.50;;;0.60;;
2187;SDS011;1100;52.014;8.540;2023-03-14T15:02:58;4.68;;;0.40;;
2187;SDS011;1100;52.014;8.540;2023-03-14T15:05:28;7.43;;;0.40;;
2187;SDS011;1100;52.014;8.540;2023-03-14T15:07:55;6.23;;;0.40;;
2187;SDS011;1100;52.014;8.540;2023-03-14T15:10:23;7.95;;;0.60;;
2187;SDS011;1100;52.014;8.540;2023-03-14T15:12:49;6.93;;;0.50;;
2187;SDS011;1100;52.014;8.540;2023-03-14T15:15:15;9.13;;;0.50;;
2187;SDS011;1100;52.014;8.540;2023-03-14T15:17:41;4.65;;;0.55;;
2187;SDS011;1100;52.014;8.540;2023-03-14T15:20:10;6.93;;;0.50;;
2187;SDS011;1100;52.014;8.540;2023-03-14T15:22:38;7.00;;;0.40;;
2187;SDS011;1100;52.014;8.540;2023-03-14T15:25:04;6.93;;;0.73;;
2187;SDS011;1100;52.014;8.540;2023-03-14T15:27:30;4.65;;;0.40;;
2187;SDS011;1100;52.014;8.540;2023-03-14T15:29:57;14.68;;;0.68;;
2187;SDS011;1100;52.014;8.540;2023-03-14T15:32:23;6.83;;;0.53;;
2187;SDS011;1100;52.014;8.540;2023-03-14T15:34:52;5.47;;;0.32;;
2187;SDS011;1100;52.014;8.540;2023-03-14T15:37:17;6.43;;;0.47;;
2187;SDS011;1100;52.014;8.540;2023-03-14T15:39:43;5.97;;;0.40;;
2187;SDS011;1100;52.014;8.540;2023-03-14T15:42:08;5.70;;;0.20;;
2187;SDS011;1100;52.014;8.540;2023-03-14T15:44:34;3.38;;;0.22;;
2187;SDS011;1100;52.014;8.540;2023-03-14T15:46:59;7.40;;;0.67;;
2187;SDS011;1100;52.014;8.540;2023-03-14T15:49:25;5.85;;;0.30;;
2187;SDS011;1100;52.014;8.540;2023-03-14T15:51:50;4.70;;;0.30;;
2187;SDS011;1100;52.014;8.540;2023-03-14T15:54:16;3.83;;;0.30;;
2187;SDS011;1100;52.014;8.540;2023-03-14T15:56:41;4.77;;;0.40;;
2187;SDS011;1100;52.014;8.540;2023-03-14T15:59:06;5.83;;;0.57;;
2187;SDS011;1100;52.014;8.540;2023-03-14T16:01:32;4.83;;;0.30;;
2187;SDS011;1100;52.014;8.540;2023-03-14T16:03:57;6.97;;;0.30;;
2187;SDS011;1100;52.014;8.540;2023-03-14T16:06:22;3.50;;;0.27;;
2187;SDS011;1100;52.014;8.540;2023-03-14T16:08:47;6.18;;;0.40;;
2187;SDS011;1100;52.014;8.540;2023-03-14T16:11:14;4.63;;;0.30;;
2187;SDS011;1100;52.014;8.540;2023-03-14T16:13:42;3.77;;;0.20;;
2187;SDS011;1100;52.014;8.540;2023-03-14T16:16:08;7.15;;;0.43;;
2187;SDS011;1100;52.014;8.540;2023-03-14T16:18:35;7.78;;;0.38;;
2187;SDS011;1100;52.014;8.540;2023-03-14T16:21:03;8.85;;;0.60;;
2187;SDS011;1100;52.014;8.540;2023-03-14T16:23:31;7.97;;;0.80;;
2187;SDS011;1100;52.014;8.540;2023-03-14T16:25:57;4.45;;;0.28;;
2187;SDS011;1100;52.014;8.540;2023-03-14T16:28:23;4.13;;;0.52;;
2187;SDS011;1100;52.014;8.540;2023-03-14T16:30:50;4.25;;;0.40;;
2187;SDS011;1100;52.014;8.540;2023-03-14T16:33:15;3.83;;;0.27;;
2187;SDS011;1100;52.014;8.540;2023-03-14T16:35:41;6.60;;;0.38;;
2187;SDS011;1100;52.014;8.540;2023-03-14T16:38:17;4.72;;;0.50;;
2187;SDS011;1100;52.014;8.540;2023-03-14T16:40:43;6.57;;;0.40;;
2187;SDS011;1100;52.014;8.540;2023-03-14T16:43:08;6.40;;;0.50;;
2187;SDS011;1100;52.014;8.540;2023-03-14T16:45:35;7.60;;;0.70;;